<?xml version='1.0' encoding='UTF-8'?>
<gpx xmlns="http://www.topografix.com/GPX/1/1" creator="www.balnam.be" version="1.1" xmlns:xsi="http://www.w3.org/2001/XMLSchema-instance" xsi:schemaLocation="http://www.topografix.com/GPX/1/1 http://www.topografix.com/GPX/1/1/gpx.xsd">
<trk>
<name>hmtmt50</name>
<cmt>v</cmt>
<desc>Montigny-le-Tilleul Sentier n°50 Sentier de Montigny-le-Tilleul à la maison Chevelot</desc>
<link href="https://chemins.be/montignyletilleul/sentier/50"/><trkseg>
<trkpt lat="50.374379" lon="4.372428"><time>2026-05-02T18:07:10Z</time></trkpt>
<trkpt lat="50.374505" lon="4.372625"><time>2026-05-02T18:17:10Z</time></trkpt>
<trkpt lat="50.374855" lon="4.373173"><time>2026-05-02T18:27:10Z</time></trkpt>
<trkpt lat="50.375188" lon="4.372949"><time>2026-05-02T18:37:10Z</time></trkpt>
</trkseg></trk>
<trk>
<name>hmtmt50</name>
<cmt>r</cmt>
<desc>Montigny-le-Tilleul Sentier n°50 Sentier de Montigny-le-Tilleul à la maison Chevelot</desc>
<link href="https://chemins.be/montignyletilleul/sentier/50"/><trkseg>
<trkpt lat="50.375188" lon="4.372949"><time>2026-05-02T18:37:10Z</time></trkpt>
<trkpt lat="50.375332" lon="4.373328"><time>2026-05-02T18:47:10Z</time></trkpt>
<trkpt lat="50.375511" lon="4.374383"><time>2026-05-02T18:57:10Z</time></trkpt>
</trkseg></trk>
<trk>
<name>hmtmt50</name>
<cmt>v</cmt>
<desc>Montigny-le-Tilleul Sentier n°50 Sentier de Montigny-le-Tilleul à la maison Chevelot</desc>
<link href="https://chemins.be/montignyletilleul/sentier/50"/><trkseg>
<trkpt lat="50.375511" lon="4.374383"><time>2026-05-02T18:57:10Z</time></trkpt>
<trkpt lat="50.375439" lon="4.374593"><time>2026-05-02T19:07:10Z</time></trkpt>
<trkpt lat="50.375457" lon="4.374889"><time>2026-05-02T19:17:10Z</time></trkpt>
<trkpt lat="50.375610" lon="4.375226"><time>2026-05-02T19:27:10Z</time></trkpt>
<trkpt lat="50.375754" lon="4.376182"><time>2026-05-02T19:37:10Z</time></trkpt>
<trkpt lat="50.375826" lon="4.376618"><time>2026-05-02T19:47:10Z</time></trkpt>
<trkpt lat="50.376275" lon="4.377391"><time>2026-05-02T19:57:10Z</time></trkpt>
<trkpt lat="50.376662" lon="4.377644"><time>2026-05-02T20:07:10Z</time></trkpt>
</trkseg></trk>
<trk>
<name>hmtmt50</name>
<cmt>s</cmt>
<desc>Montigny-le-Tilleul Sentier n°50 Sentier de Montigny-le-Tilleul à la maison Chevelot</desc>
<link href="https://chemins.be/montignyletilleul/sentier/50"/><trkseg>
<trkpt lat="50.376662" lon="4.377644"><time>2026-05-02T20:07:10Z</time></trkpt>
<trkpt lat="50.377048" lon="4.377926"><time>2026-05-02T20:17:10Z</time></trkpt>
<trkpt lat="50.377174" lon="4.378375"><time>2026-05-02T20:27:10Z</time></trkpt>
</trkseg></trk>
<trk>
<name>hmtmt50</name>
<cmt>r</cmt>
<desc>Montigny-le-Tilleul Sentier n°50 Sentier de Montigny-le-Tilleul à la maison Chevelot</desc>
<link href="https://chemins.be/montignyletilleul/sentier/50"/><trkseg>
<trkpt lat="50.377174" lon="4.378375"><time>2026-05-02T20:27:10Z</time></trkpt>
<trkpt lat="50.377309" lon="4.378291"><time>2026-05-02T20:37:10Z</time></trkpt>
<trkpt lat="50.378532" lon="4.379276"><time>2026-05-02T20:47:10Z</time></trkpt>
</trkseg></trk>
<trk>
<name>hmtmt50</name>
<cmt>v</cmt>
<desc>Montigny-le-Tilleul Sentier n°50 Sentier de Montigny-le-Tilleul à la maison Chevelot</desc>
<link href="https://chemins.be/montignyletilleul/sentier/50"/><trkseg>
<trkpt lat="50.378532" lon="4.379276"><time>2026-05-02T20:47:10Z</time></trkpt>
<trkpt lat="50.378379" lon="4.378629"><time>2026-05-02T20:57:10Z</time></trkpt>
<trkpt lat="50.378334" lon="4.378488"><time>2026-05-02T21:07:10Z</time></trkpt>
<trkpt lat="50.378388" lon="4.378235"><time>2026-05-02T21:17:10Z</time></trkpt>
</trkseg>
</trk>
</gpx>